createdAt,value
2024-03-15T17:38:32.022Z,4.18
2024-03-15T17:39:33.606Z,4.05
2024-03-15T17:40:35.094Z,3.92
2024-03-15T17:41:36.497Z,3.67
2024-03-15T17:42:38.236Z,3.63
2024-03-15T17:43:39.806Z,4.03
2024-03-15T17:44:43.808Z,3.78
2024-03-15T17:45:45.269Z,3.22
2024-03-15T17:46:46.726Z,3.58
2024-03-15T17:47:48.254Z,3.47
2024-03-15T17:48:49.851Z,3.67
2024-03-15T17:49:53.743Z,3.40
2024-03-15T17:51:56.811Z,3.60
2024-03-15T17:52:58.739Z,3.92
2024-03-15T17:54:00.447Z,3.63
2024-03-15T17:55:03.500Z,4.07
2024-03-15T17:56:05.492Z,3.20
2024-03-15T17:57:07.552Z,3.25
2024-03-15T17:58:09.076Z,3.17
2024-03-15T17:59:10.569Z,3.63
2024-03-15T18:00:13.421Z,3.40
2024-03-15T18:01:15.463Z,3.30
2024-03-15T18:02:16.980Z,3.17
2024-03-15T18:03:18.443Z,3.70
2024-03-15T18:04:22.034Z,3.63
2024-03-15T18:05:23.848Z,3.47
2024-03-15T18:06:25.328Z,3.40
2024-03-15T18:07:26.758Z,3.17
2024-03-15T18:08:28.348Z,3.22
2024-03-15T18:09:29.918Z,3.70
2024-03-15T18:10:31.384Z,4.10
2024-03-15T18:11:32.948Z,3.25
2024-03-15T18:12:34.415Z,3.30
2024-03-15T18:13:35.828Z,3.45
2024-03-15T18:14:37.260Z,4.03
2024-03-15T18:15:38.944Z,3.35
2024-03-15T18:16:40.645Z,3.38
2024-03-15T18:17:42.583Z,3.13
2024-03-15T18:18:44.097Z,2.83
2024-03-15T18:19:47.066Z,3.85
2024-03-15T18:20:48.511Z,3.28
2024-03-15T18:21:50.037Z,3.50
2024-03-15T18:22:51.508Z,3.50
2024-03-15T18:23:52.952Z,3.63
2024-03-15T18:24:54.522Z,3.25
2024-03-15T18:25:55.983Z,4.10
2024-03-15T18:26:57.417Z,4.03
2024-03-15T18:28:00.788Z,3.50
2024-03-15T18:29:02.400Z,4.07
2024-03-15T18:30:04.720Z,3.63
2024-03-15T18:31:06.564Z,3.22
2024-03-15T18:32:08.184Z,4.45
2024-03-15T18:33:11.498Z,3.67
2024-03-15T18:34:12.961Z,3.65
2024-03-15T18:35:15.661Z,3.42
2024-03-15T18:36:18.065Z,3.40
2024-03-15T18:37:19.559Z,2.85
2024-03-15T18:38:21.006Z,3.58
2024-03-15T18:39:22.704Z,3.50
2024-03-15T18:40:24.852Z,3.03
2024-03-15T18:41:26.249Z,3.40
2024-03-15T18:42:28.028Z,3.88
2024-03-15T18:43:29.562Z,3.28
2024-03-15T18:44:30.996Z,3.20
2024-03-15T18:45:33.835Z,3.35
2024-03-15T18:46:35.413Z,3.53
2024-03-15T18:47:41.690Z,3.80
2024-03-15T18:48:45.111Z,3.97
2024-03-15T18:49:48.184Z,2.97
2024-03-15T18:50:49.655Z,3.42
2024-03-15T18:51:51.077Z,3.45
2024-03-15T18:52:53.636Z,3.60
2024-03-15T18:53:55.175Z,3.60
2024-03-15T18:54:58.037Z,3.40
2024-03-15T18:55:59.657Z,3.70
2024-03-15T18:57:03.011Z,3.65
2024-03-15T18:58:05.940Z,2.97
2024-03-15T18:59:09.120Z,3.90
2024-03-15T19:00:18.820Z,3.83
2024-03-15T19:01:21.801Z,3.95
2024-03-15T19:02:26.609Z,3.60
2024-03-15T19:03:28.104Z,3.88
2024-03-15T19:04:29.540Z,4.07
2024-03-15T19:05:33.579Z,3.70
2024-03-15T19:06:37.173Z,3.55
2024-03-15T19:07:38.615Z,4.25
2024-03-15T19:08:45.699Z,3.42
2024-03-15T19:09:47.262Z,2.95
2024-03-15T19:10:48.811Z,3.45
2024-03-15T19:11:50.725Z,3.67
2024-03-15T19:12:52.504Z,3.60
2024-03-15T19:13:54.104Z,3.88
2024-03-15T19:14:55.544Z,3.92
2024-03-15T19:15:57.400Z,3.50
2024-03-15T19:16:58.962Z,3.97
2024-03-15T19:18:00.421Z,4.13
2024-03-15T19:19:01.951Z,3.95
2024-03-15T19:20:07.233Z,4.20
2024-03-15T19:21:08.704Z,3.78
2024-03-15T19:22:10.186Z,3.40
2024-03-15T19:23:12.979Z,3.22
2024-03-15T19:24:14.388Z,3.90
2024-03-15T19:25:15.834Z,3.78
2024-03-15T19:26:17.585Z,4.10
2024-03-15T19:27:21.541Z,3.78
2024-03-15T19:28:23.908Z,3.85
2024-03-15T19:29:25.358Z,3.67
2024-03-15T19:30:26.808Z,3.78
2024-03-15T19:31:28.263Z,4.68
2024-03-15T19:32:31.605Z,3.97
2024-03-15T19:33:33.209Z,3.90
2024-03-15T19:34:35.449Z,3.95
2024-03-15T19:35:40.454Z,4.00
2024-03-15T19:36:41.927Z,3.80
2024-03-15T19:37:44.270Z,3.97
2024-03-15T19:38:45.663Z,3.55
2024-03-15T19:39:47.118Z,4.00
2024-03-15T19:40:49.275Z,3.67
2024-03-15T19:41:51.162Z,3.58
2024-03-15T19:42:52.707Z,3.90
2024-03-15T19:43:54.118Z,4.63
2024-03-15T19:44:55.840Z,3.20
2024-03-15T19:45:57.305Z,4.10
2024-03-15T19:47:01.779Z,4.28
2024-03-15T19:48:05.099Z,4.30
2024-03-15T19:49:06.597Z,3.92
2024-03-15T19:50:08.142Z,4.10
2024-03-15T19:51:09.682Z,3.55
2024-03-15T19:52:11.152Z,3.80
2024-03-15T19:53:13.788Z,3.25
2024-03-15T19:54:15.271Z,4.07
2024-03-15T19:55:16.808Z,3.53
2024-03-15T19:56:18.351Z,2.83
2024-03-15T19:57:20.174Z,3.30
2024-03-15T19:58:21.613Z,3.95
2024-03-15T19:59:23.124Z,3.50
2024-03-15T20:00:24.962Z,3.78
2024-03-15T20:01:26.522Z,3.83
2024-03-15T20:02:28.924Z,3.60
2024-03-15T20:03:30.920Z,3.70
2024-03-15T20:04:32.567Z,3.03
2024-03-15T20:05:34.040Z,3.10
2024-03-15T20:06:35.661Z,3.63
2024-03-15T20:07:37.336Z,4.07
2024-03-15T20:08:39.020Z,3.28
2024-03-15T20:09:41.082Z,3.28
2024-03-15T20:10:42.593Z,3.60
2024-03-15T20:11:44.096Z,3.33
2024-03-15T20:12:45.810Z,3.17
2024-03-15T20:13:47.393Z,3.72
2024-03-15T20:14:50.167Z,3.53
2024-03-15T20:15:51.623Z,3.10
2024-03-15T20:16:53.389Z,3.55
2024-03-15T20:17:54.897Z,3.00
2024-03-15T20:18:56.647Z,3.47
2024-03-15T20:19:59.114Z,2.90
2024-03-15T20:21:00.970Z,4.20
2024-03-15T20:22:07.826Z,3.03
2024-03-15T20:23:09.794Z,3.28
2024-03-15T20:24:12.713Z,3.63
2024-03-15T20:25:15.836Z,3.75
2024-03-15T20:26:18.214Z,3.55
2024-03-15T20:27:19.996Z,3.65
2024-03-15T20:28:21.531Z,3.58
2024-03-15T20:29:23.138Z,3.88
2024-03-15T20:30:24.890Z,3.55
2024-03-15T20:31:26.451Z,4.70
2024-03-15T20:32:28.052Z,3.53
2024-03-15T20:33:30.510Z,4.22
2024-03-15T20:34:32.014Z,3.50
2024-03-15T20:35:33.463Z,4.03
2024-03-15T20:36:35.063Z,3.30
2024-03-15T20:37:37.191Z,3.75
2024-03-15T20:38:38.705Z,4.53
2024-03-15T20:39:43.908Z,4.30
2024-03-15T20:40:48.967Z,3.78
2024-03-15T20:41:50.549Z,3.63
2024-03-15T20:42:54.027Z,4.47
2024-03-15T20:43:56.672Z,4.13
2024-03-15T20:44:58.522Z,3.50
2024-03-15T20:46:01.325Z,4.15
2024-03-15T20:47:04.984Z,3.85
2024-03-15T20:49:08.508Z,3.92
2024-03-15T20:50:11.384Z,4.20
2024-03-15T20:51:14.795Z,3.65
2024-03-15T20:52:16.610Z,4.10
2024-03-15T20:53:18.044Z,4.05
2024-03-15T20:54:19.493Z,3.80
2024-03-15T20:55:20.956Z,4.00
2024-03-15T20:56:22.364Z,4.40
2024-03-15T20:57:24.122Z,4.38
2024-03-15T20:58:27.998Z,4.20
2024-03-15T20:59:30.039Z,4.72
2024-03-15T21:00:31.881Z,4.15
2024-03-15T21:01:33.408Z,5.10
2024-03-15T21:02:34.918Z,4.38
2024-03-15T21:03:36.341Z,5.25
2024-03-15T21:04:37.896Z,4.47
2024-03-15T21:05:40.435Z,4.93
2024-03-15T21:06:41.911Z,4.47
2024-03-15T21:07:43.847Z,5.00
2024-03-15T21:08:46.776Z,4.47
2024-03-15T21:09:48.215Z,4.68
2024-03-15T21:10:54.606Z,4.60
2024-03-15T21:11:57.053Z,4.30
2024-03-15T21:12:58.544Z,5.05
2024-03-15T21:13:59.979Z,4.90
2024-03-15T21:15:04.362Z,4.93
2024-03-15T21:16:06.175Z,5.20
2024-03-15T21:17:08.090Z,4.50
2024-03-15T21:18:10.261Z,5.35
2024-03-15T21:19:11.807Z,6.05
2024-03-15T21:20:13.782Z,5.03
2024-03-15T21:21:15.830Z,5.50
2024-03-15T21:22:17.227Z,4.70
2024-03-15T21:23:18.624Z,5.43
2024-03-15T21:24:20.076Z,5.00
2024-03-15T21:25:21.588Z,5.80
2024-03-15T21:26:23.088Z,5.80
2024-03-15T21:27:24.766Z,5.68
2024-03-15T21:28:26.278Z,5.15
2024-03-15T21:29:27.808Z,4.85
2024-03-15T21:30:29.514Z,5.22
2024-03-15T21:31:31.287Z,5.45
2024-03-15T21:32:36.367Z,5.20
2024-03-15T21:33:37.828Z,5.28
2024-03-15T21:34:41.897Z,5.47
2024-03-15T21:35:47.664Z,5.00
2024-03-15T21:36:49.389Z,5.43
2024-03-15T21:37:51.214Z,5.32
2024-03-15T21:38:53.435Z,5.72
2024-03-15T21:39:54.884Z,5.45
2024-03-15T21:40:58.638Z,6.63
2024-03-15T21:42:00.438Z,6.15
2024-03-15T21:43:05.907Z,5.03
2024-03-15T21:44:07.946Z,4.80
2024-03-15T21:45:16.434Z,6.20
2024-03-15T21:46:32.963Z,5.63
2024-03-15T21:47:34.623Z,5.65
2024-03-15T21:48:39.342Z,5.68
2024-03-15T21:49:40.800Z,5.90
2024-03-15T21:50:42.365Z,5.60
2024-03-15T21:51:43.788Z,5.47
2024-03-15T21:52:48.106Z,5.82
2024-03-15T21:53:49.573Z,5.35
2024-03-15T21:54:50.980Z,5.72
